KAVP/AVP METAR and TAF weather

Enter ICAO airport designator
Station Type Date Time Source
KAVP METAR 2019/02/23 16:54 UTC NOAA

KAVP 231654Z 30004KT 10SM CLR 03/M05 A3038 RMK AO2 SLP295 T00281050


Station Type Date Time Source
KAVP Decoded METAR 2019/02/23 16:54 UTC NOAA

WILKES-BARRE/SCRANTON INTERNATIONAL , PA, United States (KAVP) 41-20N 75-44W 291M
Feb 23, 2019 - 11:54 AM EST / 2019.02.23 1654 UTC
Wind: from the WNW (300 degrees) at 5 MPH (4 KT):0
Visibility: 10 mile(s):0
Sky conditions: clear
Temperature: 37.0 F (2.8 C)
Dew Point: 23.0 F (-5.0 C)
Relative Humidity: 56%
Pressure (altimeter): 30.38 in. Hg (1028 hPa)
ob: KAVP 231654Z 30004KT 10SM CLR 03/M05 A3038 RMK AO2 SLP295 T00281050
cycle: 17

Station Type Date Time Source
KAVP TAF 2019/02/23 12:22 UTC NOAA

TAF KAVP 231120Z 2312/2412 VRB03KT P6SM SCT035
FM240100 15005KT 6SM -RA OVC025
FM240500 15010KT 5SM -RA OVC015 WS020/17040KT


Example: see airport list